Time;durP1;ratioP1;P1;durP2;ratioP2;P2;SDS_P1;SDS_P2;PMS_P1;PMS_P2;Temp;Humidity;BMP_temperature;BMP_pressure;BME280_temperature;BME280_humidity;BME280_pressure;Samples;Min_cycle;Max_cycle;Signal;HPM_P1;HPM_P2
2022/03/21 00:02:23;;;;;;;74.00;40.50;;;;;;;4.00;34.33;102722.23;107298;1276;137891;-73
2022/03/21 00:04:55;;;;;;;72.60;41.40;;;;;;;3.90;34.65;102721.39;107476;1276;109005;-74
2022/03/21 00:07:27;;;;;;;79.60;42.20;;;;;;;3.83;34.85;102720.80;107389;1276;138657;-73
2022/03/21 00:09:59;;;;;;;77.20;42.30;;;;;;;3.77;35.03;102723.84;107418;1276;96162;-73
2022/03/21 00:12:33;;;;;;;71.60;40.90;;;;;;;3.69;35.34;102721.67;107361;1276;138175;-73
2022/03/21 00:15:10;;;;;;;68.90;39.70;;;;;;;3.63;35.51;102723.73;107421;1276;111284;-75
2022/03/21 00:17:42;;;;;;;62.90;36.50;;;;;;;3.59;35.42;102724.94;107467;1276;108074;-74
2022/03/21 00:20:16;;;;;;;61.40;36.50;;;;;;;3.59;35.48;102728.05;107287;1276;138368;-74
2022/03/21 00:22:48;;;;;;;60.20;34.00;;;;;;;3.60;35.46;102725.35;107395;1276;96321;-74
2022/03/21 00:25:20;;;;;;;66.30;37.40;;;;;;;3.63;35.48;102729.23;107329;1276;137837;-73
2022/03/21 00:27:58;;;;;;;66.50;37.20;;;;;;;3.64;35.51;102722.73;107421;1276;113022;-73
2022/03/21 00:30:31;;;;;;;57.40;32.40;;;;;;;3.66;35.50;102727.23;107281;1276;139073;-73
2022/03/21 00:33:04;;;;;;;62.10;36.10;;;;;;;3.68;35.46;102726.46;107420;1276;107699;-73
2022/03/21 00:35:36;;;;;;;72.50;37.60;;;;;;;3.68;35.50;102724.91;107368;1276;96111;-73
2022/03/21 00:38:13;;;;;;;68.50;39.30;;;;;;;3.67;35.52;102723.50;107335;1276;138156;-74
2022/03/21 00:40:45;;;;;;;63.50;38.20;;;;;;;3.67;35.69;102723.15;107302;1276;109950;-73
2022/03/21 00:43:21;;;;;;;66.00;38.60;;;;;;;3.65;35.86;102720.87;107309;1276;138340;-73
2022/03/21 00:45:57;;;;;;;66.70;37.40;;;;;;;3.62;35.86;102728.86;107438;1276;109264;-74
2022/03/21 00:48:32;;;;;;;67.80;37.20;;;;;;;3.61;35.80;102727.98;107274;1277;139465;-73
2022/03/21 00:51:03;;;;;;;64.10;36.20;;;;;;;3.61;35.73;102727.08;107402;1276;96135;-74
2022/03/21 00:53:35;;;;;;;59.70;35.40;;;;;;;3.60;35.71;102728.11;107493;1276;111369;-73
2022/03/21 00:56:08;;;;;;;57.90;32.10;;;;;;;3.61;35.78;102721.43;107348;1276;137991;-73
2022/03/21 00:58:40;;;;;;;60.00;34.80;;;;;;;3.64;35.60;102722.04;107447;1276;106572;-74
2022/03/21 01:01:13;;;;;;;65.70;36.40;;;;;;;3.65;35.61;102722.56;107334;1276;139572;-73
2022/03/21 01:03:45;;;;;;;68.50;35.70;;;;;;;3.63;35.61;102722.71;107448;1276;96201;-74
2022/03/21 01:06:17;;;;;;;58.10;35.60;;;;;;;3.62;35.65;102721.63;107374;1276;139081;-73
2022/03/21 01:08:50;;;;;;;57.10;34.10;;;;;;;3.62;35.56;102722.82;107492;1276;108379;-74
2022/03/21 01:11:23;;;;;;;63.60;35.30;;;;;;;3.61;35.53;102718.66;107446;1276;109141;-74
2022/03/21 01:13:55;;;;;;;66.50;37.80;;;;;;;3.60;35.74;102721.38;107335;1276;137810;-74
2022/03/21 01:16:27;;;;;;;71.30;37.60;;;;;;;3.57;35.70;102718.83;107408;1276;96940;-73
2022/03/21 01:18:59;;;;;;;66.10;36.30;;;;;;;3.53;35.76;102716.46;107270;1277;138783;-72
2022/03/21 01:21:31;;;;;;;68.50;38.10;;;;;;;3.47;35.87;102713.17;107465;1276;108161;-74
2022/03/21 01:24:03;;;;;;;65.20;37.50;;;;;;;3.43;35.88;102714.04;107410;1276;108915;-75
2022/03/21 01:26:35;;;;;;;58.80;33.90;;;;;;;3.38;35.97;102709.88;107294;1276;138687;-74
2022/03/21 01:29:07;;;;;;;58.30;32.90;;;;;;;3.34;35.81;102704.77;107388;1276;96878;-74
2022/03/21 01:31:39;;;;;;;54.80;29.90;;;;;;;3.34;35.78;102708.04;107158;1276;138790;-74
2022/03/21 01:34:11;;;;;;;45.40;26.60;;;;;;;3.36;35.78;102703.96;107455;1276;107882;-74
2022/03/21 01:36:43;;;;;;;49.20;26.80;;;;;;;3.39;35.65;102703.20;107313;1276;138883;-73
2022/03/21 01:39:15;;;;;;;47.90;26.80;;;;;;;3.41;35.68;102701.41;107405;1276;96428;-74
2022/03/21 01:41:47;;;;;;;48.10;27.10;;;;;;;3.45;35.79;102703.80;107465;1276;96129;-75
2022/03/21 01:44:20;;;;;;;48.40;26.50;;;;;;;3.48;35.83;102703.75;107310;1276;137570;-73
2022/03/21 01:46:52;;;;;;;52.80;30.50;;;;;;;3.52;35.74;102698.35;107423;1276;107723;-73
2022/03/21 01:49:26;;;;;;;44.50;26.80;;;;;;;3.52;35.78;102693.55;107338;1276;138303;-74
2022/03/21 01:51:58;;;;;;;49.10;28.70;;;;;;;3.53;35.84;102693.94;107394;1277;96066;-74
2022/03/21 01:57:21;;;;;;;56.30;32.60;;;;;;;3.54;35.90;102693.63;107438;1276;112870;-73
2022/03/21 01:59:55;;;;;;;53.50;30.60;;;;;;;3.51;35.90;102687.32;107427;1276;108930;-73
2022/03/21 02:02:28;;;;;;;51.90;29.80;;;;;;;3.48;35.88;102686.19;107316;1277;138484;-74
2022/03/21 02:05:00;;;;;;;47.40;28.50;;;;;;;3.46;35.94;102688.02;107418;1276;96131;-74
2022/03/21 02:07:32;;;;;;;42.00;24.10;;;;;;;3.45;35.85;102687.29;107377;1276;137853;-75
2022/03/21 02:10:05;;;;;;;44.80;24.90;;;;;;;3.46;35.74;102684.56;107357;1277;111487;-75
2022/03/21 02:12:38;;;;;;;39.40;23.80;;;;;;;3.47;35.67;102685.82;107335;1276;138673;-74
2022/03/21 02:15:12;;;;;;;41.10;23.00;;;;;;;3.49;35.69;102687.08;107407;1276;108902;-75
2022/03/21 02:17:46;;;;;;;41.80;24.60;;;;;;;3.50;35.66;102691.08;107422;1276;96074;-75
2022/03/21 02:20:21;;;;;;;40.20;23.40;;;;;;;3.52;35.59;102690.45;107336;1277;138608;-74
2022/03/21 02:23:07;;;;;;;42.10;24.70;;;;;;;3.53;35.56;102695.66;107217;1277;111085;-74
2022/03/21 02:25:43;;;;;;;38.50;24.00;;;;;;;3.54;35.63;102697.42;107334;1277;138849;-75
2022/03/21 02:28:17;;;;;;;45.60;26.20;;;;;;;3.55;35.65;102694.67;107426;1277;107842;-74
2022/03/21 02:30:50;;;;;;;46.40;26.70;;;;;;;3.53;35.75;102693.44;107301;1276;138372;-74
2022/03/21 02:33:23;;;;;;;44.30;26.40;;;;;;;3.51;35.68;102689.91;107464;1276;96179;-75
2022/03/21 02:35:58;;;;;;;40.20;24.60;;;;;;;3.49;35.80;102690.34;107445;1277;111155;-75
2022/03/21 02:38:33;;;;;;;41.10;23.50;;;;;;;3.46;35.83;102688.36;107312;1277;138944;-74
2022/03/21 02:41:05;;;;;;;41.70;23.80;;;;;;;3.44;35.73;102692.60;107423;1277;107930;-74
2022/03/21 02:43:53;;;;;;;42.80;25.10;;;;;;;3.44;35.86;102699.98;107327;1277;138064;-75
2022/03/21 02:46:26;;;;;;;42.30;23.10;;;;;;;3.42;35.89;102699.74;107441;1277;96178;-75
2022/03/21 02:48:58;;;;;;;37.70;22.30;;;;;;;3.41;35.80;102699.16;107313;1276;138735;-75
2022/03/21 02:51:33;;;;;;;36.40;22.40;;;;;;;3.40;35.67;102699.11;107425;1276;109386;-74
2022/03/21 02:54:05;;;;;;;38.00;22.90;;;;;;;3.38;35.67;102697.16;107422;1277;107829;-74
2022/03/21 02:56:37;;;;;;;40.40;22.50;;;;;;;3.37;35.68;102700.55;107303;1276;138860;-74
2022/03/21 02:59:09;;;;;;;38.50;23.30;;;;;;;3.34;35.65;102696.68;107453;1277;96338;-74
2022/03/21 03:01:41;;;;;;;36.10;22.30;;;;;;;3.31;35.70;102695.55;107229;1277;138743;-74
2022/03/21 03:04:14;;;;;;;38.80;22.60;;;;;;;3.28;35.67;102695.80;107446;1277;108806;-74
2022/03/21 03:06:46;;;;;;;39.90;23.30;;;;;;;3.24;35.72;102693.23;107210;1277;138401;-74
2022/03/21 03:09:18;;;;;;;41.00;23.40;;;;;;;3.21;35.77;102696.17;107474;1276;96069;-74
2022/03/21 03:11:50;;;;;;;48.60;27.40;;;;;;;3.17;35.82;102694.14;107402;1277;96229;-74
2022/03/21 03:14:23;;;;;;;54.20;29.20;;;;;;;3.14;35.93;102692.14;107381;1276;137712;-74
2022/03/21 03:16:56;;;;;;;55.10;32.50;;;;;;;3.10;36.06;102691.65;107462;1277;107777;-73
2022/03/21 03:19:28;;;;;;;59.10;35.10;;;;;;;3.08;36.30;102693.82;107309;1276;138098;-73
2022/03/21 03:22:00;;;;;;;66.60;38.20;;;;;;;3.05;36.53;102691.48;107434;1276;95904;-74
2022/03/21 03:24:32;;;;;;;77.40;43.50;;;;;;;2.99;36.69;102686.63;106246;1276;138264;-73
2022/03/21 03:27:05;;;;;;;83.90;44.50;;;;;;;2.92;36.93;102691.02;105974;1277;112557;-73
2022/03/21 03:29:38;;;;;;;90.20;49.80;;;;;;;2.84;37.19;102690.48;107472;1276;107678;-74
2022/03/21 03:32:11;;;;;;;86.70;50.10;;;;;;;2.76;37.32;102688.31;107345;1276;138832;-74
2022/03/21 03:34:43;;;;;;;98.10;54.20;;;;;;;2.68;37.56;102685.94;107476;1276;96080;-74
2022/03/21 03:37:20;;;;;;;102.30;57.60;;;;;;;2.59;37.85;102687.33;107359;1276;139025;-74
2022/03/21 03:39:52;;;;;;;104.70;58.50;;;;;;;2.51;38.15;102684.56;107432;1276;112710;-73
2022/03/21 03:42:24;;;;;;;112.50;62.20;;;;;;;2.42;38.55;102682.31;107251;1277;138679;-74
2022/03/21 03:44:57;;;;;;;114.20;63.30;;;;;;;2.33;38.67;102679.23;107434;1276;108870;-74
2022/03/21 03:47:29;;;;;;;125.10;64.90;;;;;;;2.28;38.86;102680.57;107451;1276;95782;-74
2022/03/21 03:50:00;;;;;;;129.80;70.70;;;;;;;2.22;39.18;102682.38;107344;1276;138386;-75
2022/03/21 03:52:33;;;;;;;128.90;70.50;;;;;;;2.15;39.36;102688.44;107423;1276;112337;-74
2022/03/21 03:55:05;;;;;;;138.50;72.20;;;;;;;2.06;39.88;102687.55;107330;1276;138148;-74
2022/03/21 03:57:38;;;;;;;126.60;69.70;;;;;;;2.00;39.82;102685.41;107437;1276;108668;-75
2022/03/21 04:00:12;;;;;;;132.20;70.50;;;;;;;1.93;39.95;102688.17;107443;1276;95864;-74
2022/03/21 04:05:35;;;;;;;123.80;64.60;;;;;;;1.78;40.11;102683.27;107471;1276;112470;-74
2022/03/21 04:08:09;;;;;;;126.50;67.50;;;;;;;1.75;40.47;102684.20;107341;1276;138095;-74
2022/03/21 04:10:41;;;;;;;127.40;64.80;;;;;;;1.73;40.43;102683.08;107489;1276;107631;-74
2022/03/21 04:13:13;;;;;;;117.90;63.90;;;;;;;1.67;40.88;102678.20;107318;1276;139132;-74
2022/03/21 04:15:45;;;;;;;122.70;63.60;;;;;;;1.65;40.87;102680.15;107476;1276;96037;-74
2022/03/21 04:18:17;;;;;;;118.10;60.00;;;;;;;1.62;40.93;102678.84;107453;1276;112193;-74
2022/03/21 04:20:50;;;;;;;113.50;58.80;;;;;;;1.61;41.12;102677.20;107340;1276;138008;-75
2022/03/21 04:23:23;;;;;;;114.70;60.40;;;;;;;1.61;41.12;102677.20;107429;1276;108730;-75
2022/03/21 04:25:55;;;;;;;105.80;56.70;;;;;;;1.62;40.94;102674.55;107343;1276;138265;-74
2022/03/21 04:28:27;;;;;;;108.20;56.50;;;;;;;1.64;41.03;102678.41;107508;1276;96023;-74
2022/03/21 04:30:59;;;;;;;103.50;55.40;;;;;;;1.65;41.11;102677.09;107350;1276;138706;-73
2022/03/21 04:33:31;;;;;;;109.50;57.00;;;;;;;1.68;40.81;102678.42;107425;1277;107748;-74
2022/03/21 04:36:04;;;;;;;111.50;57.50;;;;;;;1.69;41.03;102677.92;107426;1276;107194;-74
2022/03/21 04:38:36;;;;;;;102.00;56.80;;;;;;;1.68;40.91;102679.59;107350;1276;137985;-74
2022/03/21 04:41:08;;;;;;;109.80;57.70;;;;;;;1.69;41.00;102679.62;107433;1276;96292;-74
2022/03/21 04:43:40;;;;;;;106.10;58.30;;;;;;;1.69;41.19;102680.85;107334;1274;139046;-73
2022/03/21 04:46:12;;;;;;;115.10;60.70;;;;;;;1.69;41.35;102681.04;107477;1276;107760;-74
2022/03/21 04:48:45;;;;;;;117.40;58.50;;;;;;;1.71;41.27;102683.32;107289;1276;139930;-74
2022/03/21 04:51:17;;;;;;;114.30;59.30;;;;;;;1.72;41.35;102689.72;107433;1276;96104;-74
2022/03/21 04:53:49;;;;;;;104.30;59.40;;;;;;;1.76;41.32;102689.02;107444;1276;96020;-74
2022/03/21 04:56:22;;;;;;;114.90;59.30;;;;;;;1.83;41.35;102692.08;107360;1276;139169;-75
2022/03/21 04:58:55;;;;;;;103.60;57.40;;;;;;;1.92;41.41;102690.54;107436;1276;108945;-75
2022/03/21 05:01:27;;;;;;;97.90;52.80;;;;;;;2.02;41.24;102692.02;107323;1276;137985;-74
2022/03/21 05:04:00;;;;;;;98.60;54.30;;;;;;;2.13;41.11;102694.03;107229;1276;172510;-74
2022/03/21 05:06:31;;;;;;;105.20;57.00;;;;;;;2.25;41.04;102694.53;107372;1276;138176;-74
2022/03/21 05:09:04;;;;;;;101.60;56.10;;;;;;;2.41;40.88;102694.80;107433;1276;112143;-74
2022/03/21 05:11:37;;;;;;;104.20;54.10;;;;;;;2.60;40.76;102693.01;106877;1275;108105;-75
2022/03/21 05:14:09;;;;;;;99.00;56.20;;;;;;;2.87;40.46;102692.67;105773;1276;137952;-73
2022/03/21 05:16:41;;;;;;;99.90;56.80;;;;;;;3.18;40.11;102689.58;105908;1276;97859;-75
2022/03/21 05:19:13;;;;;;;92.40;55.10;;;;;;;3.61;39.64;102690.96;105843;1276;137971;-74
2022/03/21 05:21:46;;;;;;;93.10;55.70;;;;;;;4.20;38.97;102690.55;105911;1276;112141;-74
2022/03/21 05:32:47;;;;;;;93.50;57.80;;;;;;;8.51;35.11;102685.65;107310;1276;138951;-74
2022/03/21 05:38:08;;;;;;;92.80;57.20;;;;;;;12.29;31.97;102669.87;107310;1276;137958;-74
2022/03/21 05:40:41;;;;;;;87.70;56.90;;;;;;;14.00;30.40;102665.36;107388;1276;108430;-74
2022/03/21 05:43:13;;;;;;;85.10;56.80;;;;;;;15.52;28.39;102664.27;107263;1276;138343;-74
2022/03/21 05:45:47;;;;;;;88.10;57.30;;;;;;;16.95;26.85;102654.80;107379;1276;95748;-74
2022/03/21 05:51:10;;;;;;;79.40;55.10;;;;;;;19.58;24.08;102651.20;107314;1275;138135;-75
2022/03/21 05:53:42;;;;;;;75.60;52.30;;;;;;;20.41;23.08;102645.12;106965;1276;108260;-75
2022/03/21 05:56:17;;;;;;;72.10;51.70;;;;;;;21.27;22.11;102642.44;105749;1276;139134;-74
2022/03/21 05:58:51;;;;;;;71.10;50.30;;;;;;;22.13;21.38;102641.96;105936;1276;97844;-75
2022/03/21 06:01:24;;;;;;;70.00;47.90;;;;;;;22.93;20.39;102643.43;106144;1276;140154;-75
2022/03/21 06:03:57;;;;;;;70.00;46.20;;;;;;;23.70;19.74;102643.33;107278;1277;108934;-76
2022/03/21 06:06:30;;;;;;;62.60;46.30;;;;;;;24.33;18.95;102642.59;107442;1276;107778;-76
2022/03/21 06:09:02;;;;;;;67.90;46.30;;;;;;;24.97;18.33;102634.23;107312;1276;138656;-76
2022/03/21 06:11:36;;;;;;;62.90;44.30;;;;;;;25.47;17.68;102637.30;107414;1276;96183;-76
2022/03/21 06:14:09;;;;;;;57.80;42.60;;;;;;;26.06;17.13;102640.61;107303;1276;138740;-76
2022/03/21 06:16:41;;;;;;;52.80;39.10;;;;;;;26.61;16.48;102641.42;107422;1276;107859;-77
2022/03/21 06:19:13;;;;;;;48.50;37.50;;;;;;;27.10;16.29;102635.11;107283;1276;140376;-76
2022/03/21 06:21:45;;;;;;;51.40;38.70;;;;;;;27.53;15.79;102638.92;107377;1276;96213;-77
2022/03/21 06:24:18;;;;;;;50.10;37.90;;;;;;;27.96;15.26;102641.61;107325;1277;96300;-76
2022/03/21 06:26:51;;;;;;;52.00;38.20;;;;;;;28.63;15.09;102633.35;107291;1276;138165;-76
2022/03/21 06:29:24;;;;;;;52.10;39.80;;;;;;;29.23;14.50;102633.17;107382;1276;106600;-76
2022/03/21 06:31:56;;;;;;;50.70;37.80;;;;;;;29.80;14.30;102635.91;107256;1276;138983;-77
2022/03/21 06:34:29;;;;;;;50.40;39.20;;;;;;;30.43;13.87;102634.63;107284;1276;96197;-78
2022/03/21 06:37:02;;;;;;;54.10;39.70;;;;;;;31.07;13.53;102633.84;107256;1276;138496;-75
2022/03/21 06:39:34;;;;;;;49.80;38.90;;;;;;;31.75;13.15;102639.21;107351;1276;111422;-77
2022/03/21 06:42:08;;;;;;;52.10;38.80;;;;;;;32.26;12.61;102632.96;107388;1276;110172;-77
2022/03/21 06:44:41;;;;;;;51.30;40.00;;;;;;;32.58;12.51;102634.02;107282;1276;139242;-75
2022/03/21 06:47:13;;;;;;;49.80;39.50;;;;;;;33.11;12.31;102636.47;107394;1276;96193;-76
2022/03/21 06:49:46;;;;;;;54.70;39.80;;;;;;;33.60;12.09;102638.30;107234;1276;139543;-76
2022/03/21 06:52:19;;;;;;;57.10;38.50;;;;;;;33.98;11.58;102637.42;107282;1277;112299;-75
2022/03/21 06:54:52;;;;;;;54.80;38.90;;;;;;;34.44;11.41;102641.89;107292;1276;138922;-76
2022/03/21 06:57:24;;;;;;;54.10;38.60;;;;;;;34.85;11.53;102638.62;107411;1275;108400;-75
2022/03/21 06:59:56;;;;;;;56.10;37.60;;;;;;;35.16;10.97;102635.21;107353;1276;96152;-76
2022/03/21 07:02:28;;;;;;;47.30;36.10;;;;;;;35.41;10.88;102645.39;107201;1276;137786;-77
2022/03/21 07:05:01;;;;;;;47.70;37.60;;;;;;;35.78;10.67;102643.79;107352;1276;111448;-77
2022/03/21 07:07:34;;;;;;;48.30;37.40;;;;;;;35.99;10.29;102646.38;107262;1276;138218;-77
2022/03/21 07:10:09;;;;;;;48.00;34.70;;;;;;;36.27;10.18;102644.73;107378;1276;107737;-77
2022/03/21 07:12:41;;;;;;;42.40;32.70;;;;;;;36.72;9.95;102637.23;107344;1276;96455;-76
2022/03/21 07:15:15;;;;;;;41.10;30.10;;;;;;;36.87;9.86;102639.48;107271;1276;138735;-78
2022/03/21 07:17:48;;;;;;;36.40;29.30;;;;;;;37.04;9.62;102641.84;107247;1276;111597;-78
2022/03/21 07:20:20;;;;;;;39.40;29.30;;;;;;;37.03;9.35;102645.88;107206;1276;137865;-77
2022/03/21 07:22:53;;;;;;;36.80;28.40;;;;;;;36.95;9.22;102645.19;107327;1276;107775;-77
2022/03/21 07:25:26;;;;;;;38.20;28.80;;;;;;;37.06;9.27;102647.73;107210;1276;139052;-78
2022/03/21 07:27:58;;;;;;;36.00;26.50;;;;;;;37.13;8.95;102649.16;107357;1276;96259;-76
2022/03/21 07:30:30;;;;;;;40.30;27.20;;;;;;;37.05;9.03;102650.41;107349;1276;112556;-78
2022/03/21 07:33:03;;;;;;;36.40;25.60;;;;;;;36.98;8.87;102648.86;107220;1276;137944;-77
2022/03/21 07:35:36;;;;;;;39.60;26.50;;;;;;;36.68;9.07;102645.73;107153;1276;107784;-77
2022/03/21 07:38:09;;;;;;;42.80;26.20;;;;;;;36.68;8.92;102648.74;107257;1276;137792;-77
2022/03/21 07:40:41;;;;;;;39.80;26.70;;;;;;;36.88;8.51;102649.95;107285;1277;96059;-77
2022/03/21 07:43:14;;;;;;;32.90;26.10;;;;;;;36.54;8.61;102649.99;107189;1276;138076;-77
2022/03/21 07:48:36;;;;;;;37.20;25.00;;;;;;;36.43;8.59;102655.41;107384;1276;107760;-76
2022/03/21 07:51:08;;;;;;;35.20;24.10;;;;;;;36.20;8.54;102655.20;107210;1276;138430;-77
2022/03/21 07:53:40;;;;;;;30.20;20.10;;;;;;;35.96;8.39;102660.79;107265;1277;96312;-76
2022/03/21 07:56:14;;;;;;;27.10;19.00;;;;;;;35.81;8.30;102661.23;107285;1276;137638;-76
2022/03/21 07:58:46;;;;;;;25.20;17.20;;;;;;;35.60;8.27;102661.17;107415;1276;107788;-76
2022/03/21 08:01:21;;;;;;;23.00;16.90;;;;;;;35.44;8.00;102660.84;107016;1276;138751;-76
2022/03/21 08:03:54;;;;;;;24.30;16.20;;;;;;;34.92;7.72;102658.36;107161;1277;96101;-77
2022/03/21 08:06:27;;;;;;;21.70;16.30;;;;;;;34.11;7.94;102658.41;107290;1277;96181;-77
2022/03/21 08:08:59;;;;;;;22.60;16.70;;;;;;;33.54;8.03;102655.82;107204;1276;137609;-76
2022/03/21 08:11:32;;;;;;;24.50;16.20;;;;;;;33.29;8.50;102651.02;107230;1278;107984;-76
2022/03/21 08:14:04;;;;;;;20.10;15.50;;;;;;;33.18;8.50;102649.50;107148;1277;137974;-79
2022/03/21 08:16:36;;;;;;;20.80;16.20;;;;;;;33.04;8.61;102648.82;107171;1276;96329;-82
2022/03/21 08:19:09;;;;;;;24.10;15.80;;;;;;;33.06;8.51;102649.70;107139;1277;138225;-76
2022/03/21 08:21:42;;;;;;;21.40;15.40;;;;;;;33.18;8.54;102651.57;107250;1277;112053;-76
2022/03/21 08:24:14;;;;;;;18.80;15.20;;;;;;;33.21;8.75;102652.84;107300;1277;108664;-77
2022/03/21 08:26:47;;;;;;;23.20;16.10;;;;;;;33.55;8.90;102650.86;106971;1279;137921;-76
2022/03/21 08:29:19;;;;;;;21.20;15.00;;;;;;;33.82;8.38;102653.44;107264;1277;96210;-77
2022/03/21 08:31:52;;;;;;;21.10;14.90;;;;;;;33.86;8.16;102651.20;107131;1277;138584;-78
2022/03/21 08:34:25;;;;;;;21.60;15.20;;;;;;;33.68;8.02;102649.48;107269;1277;112142;-76
2022/03/21 08:36:57;;;;;;;20.50;14.40;;;;;;;33.35;8.41;102647.07;107187;1277;138876;-79
2022/03/21 08:39:29;;;;;;;20.20;15.00;;;;;;;33.33;8.68;102650.48;107171;1277;107653;-79
2022/03/21 08:42:01;;;;;;;19.90;14.00;;;;;;;33.46;8.60;102644.27;107242;1277;96108;-76
2022/03/21 08:44:34;;;;;;;20.30;14.50;;;;;;;33.75;8.73;102643.41;107021;1277;138837;-78
2022/03/21 08:47:07;;;;;;;16.90;13.00;;;;;;;33.99;8.49;102645.49;107233;1277;111545;-79
2022/03/21 08:49:39;;;;;;;16.40;12.90;;;;;;;34.19;8.27;102639.06;107132;1277;138024;-77
2022/03/21 08:52:11;;;;;;;16.50;13.30;;;;;;;34.33;8.26;102641.18;107133;1277;108807;-76
2022/03/21 08:54:43;;;;;;;15.00;13.10;;;;;;;34.48;8.24;102634.30;107173;1277;96485;-76
2022/03/21 08:57:15;;;;;;;15.80;12.50;;;;;;;34.63;8.28;102632.72;107175;1277;137578;-76
2022/03/21 08:59:47;;;;;;;18.60;12.40;;;;;;;34.47;7.98;102626.97;107260;1277;112057;-75
2022/03/21 09:02:20;;;;;;;19.20;14.10;;;;;;;34.47;8.14;102626.44;107169;1277;138101;-73
2022/03/21 09:04:53;;;;;;;15.60;12.80;;;;;;;34.56;7.85;102627.60;107165;1276;109511;-77
2022/03/21 09:07:25;;;;;;;15.10;12.20;;;;;;;34.50;7.98;102631.41;107143;1277;138817;-79
2022/03/21 09:09:58;;;;;;;14.20;11.50;;;;;;;34.29;8.17;102628.58;107371;1276;96000;-76
2022/03/21 09:12:32;;;;;;;11.50;10.30;;;;;;;34.02;8.04;102633.27;107393;1276;111471;-77
2022/03/21 09:15:04;;;;;;;12.80;10.90;;;;;;;34.09;7.99;102630.21;107157;1275;137936;-76
2022/03/21 09:17:38;;;;;;;16.00;12.00;;;;;;;34.30;8.07;102631.30;107434;1275;108860;-77
2022/03/21 09:20:14;;;;;;;15.70;11.30;;;;;;;34.16;7.52;102631.83;107169;1276;139404;-78
2022/03/21 09:22:47;;;;;;;14.30;11.20;;;;;;;33.69;8.10;102627.18;107363;1276;96273;-76
2022/03/21 09:25:19;;;;;;;15.60;12.10;;;;;;;33.52;7.92;102629.13;107104;1276;139609;-76
2022/03/21 09:27:52;;;;;;;17.10;13.60;;;;;;;33.17;7.96;102636.25;107379;1276;109124;-78
2022/03/21 09:30:24;;;;;;;14.20;12.60;;;;;;;32.82;8.10;102635.84;107345;1276;107966;-79
2022/03/21 09:32:58;;;;;;;17.90;13.40;;;;;;;32.76;8.37;102636.67;107292;1275;139308;-81
2022/03/21 09:35:30;;;;;;;18.10;13.40;;;;;;;32.72;8.71;102631.27;107334;1276;96057;-78
2022/03/21 09:38:03;;;;;;;16.80;12.50;;;;;;;32.78;8.46;102631.34;107239;1276;137853;-77
2022/03/21 09:40:38;;;;;;;14.50;11.00;;;;;;;32.76;8.20;102630.96;107262;1277;108051;-77
2022/03/21 09:43:11;;;;;;;19.40;12.80;;;;;;;32.39;8.21;102631.16;107150;1276;139691;-74
2022/03/21 09:45:45;;;;;;;15.70;13.00;;;;;;;32.31;8.32;102628.94;107145;1276;96635;-77
2022/03/21 09:48:19;;;;;;;17.70;13.20;;;;;;;32.15;8.49;102628.04;107363;1276;96404;-77
2022/03/21 09:50:52;;;;;;;17.00;13.60;;;;;;;32.04;8.56;102631.10;107257;1276;138394;-77
2022/03/21 09:53:28;;;;;;;20.00;13.90;;;;;;;32.00;8.74;102629.14;107380;1276;107899;-77
2022/03/21 09:56:01;;;;;;;15.00;12.70;;;;;;;32.05;8.50;102623.29;107301;1276;139774;-77
2022/03/21 09:58:33;;;;;;;17.00;12.20;;;;;;;31.92;8.35;102623.14;107318;1276;96044;-76
2022/03/21 10:01:05;;;;;;;16.20;11.90;;;;;;;31.85;8.82;102615.14;107248;1276;138323;-76
2022/03/21 10:03:40;;;;;;;21.50;14.10;;;;;;;31.86;8.58;102609.07;107408;1276;111366;-77
2022/03/21 10:06:33;;;;;;;18.10;14.90;;;;;;;32.05;8.74;102604.70;107361;1276;108646;-76
2022/03/21 10:09:14;;;;;;;18.70;14.80;;;;;;;32.24;8.62;102600.78;107232;1276;138458;-80
2022/03/21 10:11:58;;;;;;;25.60;15.30;;;;;;;32.10;8.42;102598.95;107372;1276;96095;-80
2022/03/21 10:14:32;;;;;;;17.80;14.90;;;;;;;31.50;8.56;102600.79;107255;1276;138073;-79
2022/03/21 10:17:09;;;;;;;18.20;14.70;;;;;;;30.90;8.55;102598.44;107327;1276;111462;-79
2022/03/21 10:19:47;;;;;;;21.80;14.80;;;;;;;30.25;8.87;102597.45;107232;1276;138587;-79
2022/03/21 10:22:22;;;;;;;20.10;14.60;;;;;;;29.97;9.31;102596.06;107350;1276;107835;-80
2022/03/21 10:25:02;;;;;;;18.60;13.30;;;;;;;29.95;9.30;102590.42;107296;1276;137830;-79
2022/03/21 10:27:36;;;;;;;16.60;12.80;;;;;;;29.84;9.27;102585.63;107336;1276;96178;-79
2022/03/21 10:30:11;;;;;;;17.00;13.10;;;;;;;29.68;9.24;102585.77;107402;1276;110336;-79
2022/03/21 10:32:46;;;;;;;18.30;15.00;;;;;;;29.71;9.33;102584.95;107307;1276;137934;-79
2022/03/21 10:35:21;;;;;;;23.00;14.70;;;;;;;29.91;9.68;102582.19;107333;1276;107241;-78
2022/03/21 10:37:55;;;;;;;20.20;14.30;;;;;;;30.04;9.44;102578.85;107277;1276;137937;-78
2022/03/21 10:40:33;;;;;;;19.60;13.80;;;;;;;30.10;9.41;102576.23;107359;1276;96150;-76
2022/03/21 10:43:09;;;;;;;19.70;14.00;;;;;;;29.98;9.15;102573.70;107219;1276;139272;-76
2022/03/21 10:45:51;;;;;;;18.30;14.10;;;;;;;29.64;9.29;102569.77;107410;1274;109396;-76
2022/03/21 10:48:29;;;;;;;26.60;14.30;;;;;;;29.28;9.36;102569.35;107278;1276;107811;-80
2022/03/21 10:51:01;;;;;;;;;;;;;;;29.27;9.69;102567.86;107115;1276;138798;-77
2022/03/21 10:53:41;;;;;;;17.50;14.30;;;;;;;29.42;9.80;102567.98;107196;1277;96267;-75
2022/03/21 10:56:16;;;;;;;20.80;14.30;;;;;;;29.43;9.46;102564.85;107224;1275;138299;-70
2022/03/21 10:58:59;;;;;;;21.10;14.20;;;;;;;29.17;9.36;102560.90;107407;1276;108027;-71
2022/03/21 11:01:32;;;;;;;18.80;14.40;;;;;;;28.64;9.27;102554.56;107070;1264;138446;-82
2022/03/21 11:04:05;;;;;;;24.30;15.30;;;;;;;28.07;9.35;102555.16;107398;1276;96212;-80
2022/03/21 11:06:38;;;;;;;22.30;14.40;;;;;;;27.58;10.14;102554.09;107459;1276;95849;-91
2022/03/21 11:09:11;;;;;;;20.80;14.50;;;;;;;27.12;9.82;102553.35;107361;1276;139315;-90
2022/03/21 11:11:45;;;;;;;23.90;14.30;;;;;;;26.21;9.63;102551.10;107585;1275;106880;-91
2022/03/21 11:14:17;;;;;;;20.30;13.50;;;;;;;25.45;9.89;102553.19;107499;1276;137783;-89
2022/03/21 11:16:49;;;;;;;17.10;12.90;;;;;;;24.55;9.98;102552.88;107579;1276;97252;-90
2022/03/21 11:19:22;;;;;;;19.10;13.40;;;;;;;23.81;10.42;102554.63;107515;1276;137819;-91
2022/03/21 11:21:56;;;;;;;22.40;14.00;;;;;;;23.37;10.56;102558.26;107633;1275;110174;-94
2022/03/21 11:24:29;;;;;;;20.20;14.10;;;;;;;22.95;10.83;102555.34;107579;1276;111070;-95
2022/03/21 11:27:24;;;;;;;23.20;15.10;;;;;;;22.75;11.30;102555.00;107463;1276;138083;-91
2022/03/21 11:30:05;;;;;;;18.50;13.30;;;;;;;22.62;11.51;102549.78;107561;1276;96229;-91
2022/03/21 11:32:54;;;;;;;27.00;16.00;;;;;;;22.46;11.54;102541.27;107546;1276;139712;-93
2022/03/21 11:35:29;;;;;;;52.80;30.80;;;;;;;22.26;11.90;102534.75;107568;1276;111475;-91
2022/03/21 11:38:27;;;;;;;29.20;16.40;;;;;;;22.23;12.22;102533.25;107356;1275;138833;-83
2022/03/21 11:41:15;;;;;;;25.80;16.00;;;;;;;22.16;12.46;102527.02;107400;1276;106454;-78
2022/03/21 11:44:07;;;;;;;21.70;14.30;;;;;;;22.04;12.24;102530.23;107332;1276;138974;-92
2022/03/21 11:46:40;;;;;;;22.20;13.60;;;;;;;21.74;12.37;102521.58;107547;1275;96255;-91
2022/03/21 11:49:45;;;;;;;24.20;17.70;;;;;;;21.68;12.45;102526.25;107495;1276;138191;-92
2022/03/21 11:52:17;;;;;;;28.40;16.40;;;;;;;21.55;12.88;102517.98;106168;1276;108224;-92
2022/03/21 11:54:50;;;;;;;24.20;14.10;;;;;;;21.58;12.95;102517.84;106141;1276;108403;-90